sensor_id;sensor_type;location;lat;lon;timestamp;temperature;humidity
16305;DHT22;8261;47.678;-122.174;2023-05-19T04:08:16;21.20;99.90
16305;DHT22;8261;47.678;-122.174;2023-05-19T04:10:48;21.00;99.90
16305;DHT22;8261;47.678;-122.174;2023-05-19T04:13:22;21.00;99.90
16305;DHT22;8261;47.678;-122.174;2023-05-19T04:15:53;20.90;99.90
16305;DHT22;8261;47.678;-122.174;2023-05-19T04:18:24;20.70;99.90
16305;DHT22;8261;47.678;-122.174;2023-05-19T04:20:58;20.70;99.90
16305;DHT22;8261;47.678;-122.174;2023-05-19T04:23:31;20.60;99.90
16305;DHT22;8261;47.678;-122.174;2023-05-19T04:26:02;20.60;99.90
16305;DHT22;8261;47.678;-122.174;2023-05-19T04:28:35;20.50;99.90
16305;DHT22;8261;47.678;-122.174;2023-05-19T04:31:10;20.50;99.90
16305;DHT22;8261;47.678;-122.174;2023-05-19T04:33:42;20.40;99.90
16305;DHT22;8261;47.678;-122.174;2023-05-19T04:36:14;20.40;99.90
16305;DHT22;8261;47.678;-122.174;2023-05-19T04:38:50;20.30;99.90
16305;DHT22;8261;47.678;-122.174;2023-05-19T04:41:30;20.10;99.90
16305;DHT22;8261;47.678;-122.174;2023-05-19T04:44:02;20.00;99.90
16305;DHT22;8261;47.678;-122.174;2023-05-19T04:46:35;19.90;99.90
16305;DHT22;8261;47.678;-122.174;2023-05-19T04:49:06;19.90;99.90
16305;DHT22;8261;47.678;-122.174;2023-05-19T04:51:40;19.90;99.90
16305;DHT22;8261;47.678;-122.174;2023-05-19T04:54:16;19.80;99.90
16305;DHT22;8261;47.678;-122.174;2023-05-19T04:56:47;19.70;99.90
16305;DHT22;8261;47.678;-122.174;2023-05-19T04:59:18;19.70;99.90
16305;DHT22;8261;47.678;-122.174;2023-05-19T05:01:50;19.70;99.90
16305;DHT22;8261;47.678;-122.174;2023-05-19T05:04:21;19.60;99.90
16305;DHT22;8261;47.678;-122.174;2023-05-19T05:06:52;19.50;99.90
16305;DHT22;8261;47.678;-122.174;2023-05-19T05:09:27;19.50;99.90
16305;DHT22;8261;47.678;-122.174;2023-05-19T05:12:00;19.40;99.90
16305;DHT22;8261;47.678;-122.174;2023-05-19T05:14:33;19.40;99.90
16305;DHT22;8261;47.678;-122.174;2023-05-19T05:17:06;19.30;99.90
16305;DHT22;8261;47.678;-122.174;2023-05-19T05:19:38;19.30;99.90
16305;DHT22;8261;47.678;-122.174;2023-05-19T05:22:12;19.20;99.90
16305;DHT22;8261;47.678;-122.174;2023-05-19T05:24:47;19.20;99.90
16305;DHT22;8261;47.678;-122.174;2023-05-19T05:27:20;19.10;99.90
16305;DHT22;8261;47.678;-122.174;2023-05-19T05:29:52;19.10;99.90
16305;DHT22;8261;47.678;-122.174;2023-05-19T05:32:26;19.00;99.90
16305;DHT22;8261;47.678;-122.174;2023-05-19T05:34:57;18.90;99.90
16305;DHT22;8261;47.678;-122.174;2023-05-19T05:37:30;18.90;99.90
16305;DHT22;8261;47.678;-122.174;2023-05-19T05:40:05;18.80;99.90
16305;DHT22;8261;47.678;-122.174;2023-05-19T05:42:38;18.80;99.90
16305;DHT22;8261;47.678;-122.174;2023-05-19T05:45:11;18.70;99.90
16305;DHT22;8261;47.678;-122.174;2023-05-19T05:47:44;18.60;99.90
16305;DHT22;8261;47.678;-122.174;2023-05-19T05:50:16;18.50;99.90
16305;DHT22;8261;47.678;-122.174;2023-05-19T05:52:48;18.50;99.90
16305;DHT22;8261;47.678;-122.174;2023-05-19T05:55:23;18.40;99.90
16305;DHT22;8261;47.678;-122.174;2023-05-19T05:57:55;18.30;99.90
16305;DHT22;8261;47.678;-122.174;2023-05-19T06:00:27;18.20;99.90
16305;DHT22;8261;47.678;-122.174;2023-05-19T06:02:59;18.20;99.90
16305;DHT22;8261;47.678;-122.174;2023-05-19T06:05:30;18.10;99.90
16305;DHT22;8261;47.678;-122.174;2023-05-19T06:08:02;18.00;99.90
16305;DHT22;8261;47.678;-122.174;2023-05-19T06:10:38;18.00;99.90
16305;DHT22;8261;47.678;-122.174;2023-05-19T06:13:14;18.00;99.90
16305;DHT22;8261;47.678;-122.174;2023-05-19T06:15:51;17.90;99.90
16305;DHT22;8261;47.678;-122.174;2023-05-19T06:18:26;17.90;99.90
16305;DHT22;8261;47.678;-122.174;2023-05-19T06:20:57;17.80;99.90
16305;DHT22;8261;47.678;-122.174;2023-05-19T06:23:30;17.80;99.90
16305;DHT22;8261;47.678;-122.174;2023-05-19T06:26:03;17.70;99.90
16305;DHT22;8261;47.678;-122.174;2023-05-19T06:28:35;17.70;99.90
16305;DHT22;8261;47.678;-122.174;2023-05-19T06:31:07;17.70;99.90
16305;DHT22;8261;47.678;-122.174;2023-05-19T06:33:38;17.70;99.90
16305;DHT22;8261;47.678;-122.174;2023-05-19T06:36:09;17.60;99.90
16305;DHT22;8261;47.678;-122.174;2023-05-19T06:38:41;17.50;99.90
16305;DHT22;8261;47.678;-122.174;2023-05-19T06:41:15;17.40;99.90
16305;DHT22;8261;47.678;-122.174;2023-05-19T06:43:48;17.40;99.90
16305;DHT22;8261;47.678;-122.174;2023-05-19T06:46:20;17.40;99.90
16305;DHT22;8261;47.678;-122.174;2023-05-19T06:48:51;17.40;99.90
16305;DHT22;8261;47.678;-122.174;2023-05-19T06:51:23;17.40;99.90
16305;DHT22;8261;47.678;-122.174;2023-05-19T06:53:54;17.30;99.90
16305;DHT22;8261;47.678;-122.174;2023-05-19T06:56:28;17.30;99.90
16305;DHT22;8261;47.678;-122.174;2023-05-19T06:59:03;17.30;99.90
16305;DHT22;8261;47.678;-122.174;2023-05-19T07:01:34;17.20;99.90
16305;DHT22;8261;47.678;-122.174;2023-05-19T07:04:06;17.20;99.90
16305;DHT22;8261;47.678;-122.174;2023-05-19T07:06:38;17.20;99.90
16305;DHT22;8261;47.678;-122.174;2023-05-19T07:09:09;17.20;99.90
16305;DHT22;8261;47.678;-122.174;2023-05-19T07:11:43;17.10;99.90
16305;DHT22;8261;47.678;-122.174;2023-05-19T07:14:15;17.10;99.90
16305;DHT22;8261;47.678;-122.174;2023-05-19T07:16:46;17.00;99.90
16305;DHT22;8261;47.678;-122.174;2023-05-19T07:19:18;16.90;99.90
16305;DHT22;8261;47.678;-122.174;2023-05-19T07:21:50;16.90;99.90
16305;DHT22;8261;47.678;-122.174;2023-05-19T07:24:21;16.80;99.90
16305;DHT22;8261;47.678;-122.174;2023-05-19T07:26:54;16.80;99.90
16305;DHT22;8261;47.678;-122.174;2023-05-19T07:29:26;16.80;99.90
16305;DHT22;8261;47.678;-122.174;2023-05-19T07:31:58;16.80;99.90
16305;DHT22;8261;47.678;-122.174;2023-05-19T07:34:30;16.80;99.90
16305;DHT22;8261;47.678;-122.174;2023-05-19T07:37:01;16.70;99.90
16305;DHT22;8261;47.678;-122.174;2023-05-19T07:39:33;16.70;99.90
16305;DHT22;8261;47.678;-122.174;2023-05-19T07:42:08;16.70;99.90
16305;DHT22;8261;47.678;-122.174;2023-05-19T07:44:41;16.70;99.90
16305;DHT22;8261;47.678;-122.174;2023-05-19T07:47:12;16.60;99.90
16305;DHT22;8261;47.678;-122.174;2023-05-19T07:49:43;16.50;99.90
16305;DHT22;8261;47.678;-122.174;2023-05-19T07:52:18;16.30;99.90
16305;DHT22;8261;47.678;-122.174;2023-05-19T07:54:49;16.20;99.90
16305;DHT22;8261;47.678;-122.174;2023-05-19T07:57:23;16.20;99.90
16305;DHT22;8261;47.678;-122.174;2023-05-19T07:59:54;16.10;99.90
16305;DHT22;8261;47.678;-122.174;2023-05-19T08:02:27;16.10;99.90
16305;DHT22;8261;47.678;-122.174;2023-05-19T08:04:58;16.00;99.90
16305;DHT22;8261;47.678;-122.174;2023-05-19T08:07:30;15.90;99.90
16305;DHT22;8261;47.678;-122.174;2023-05-19T08:10:02;15.90;99.90
16305;DHT22;8261;47.678;-122.174;2023-05-19T08:12:36;15.90;99.90
16305;DHT22;8261;47.678;-122.174;2023-05-19T08:15:08;15.90;99.90
16305;DHT22;8261;47.678;-122.174;2023-05-19T08:17:40;15.90;99.90
16305;DHT22;8261;47.678;-122.174;2023-05-19T08:20:11;15.80;99.90
16305;DHT22;8261;47.678;-122.174;2023-05-19T08:22:42;15.80;99.90
16305;DHT22;8261;47.678;-122.174;2023-05-19T08:25:14;15.80;99.90
16305;DHT22;8261;47.678;-122.174;2023-05-19T08:27:47;15.80;99.90
16305;DHT22;8261;47.678;-122.174;2023-05-19T08:30:18;15.80;99.90
16305;DHT22;8261;47.678;-122.174;2023-05-19T08:32:50;15.80;99.90
16305;DHT22;8261;47.678;-122.174;2023-05-19T08:35:21;15.90;99.90
16305;DHT22;8261;47.678;-122.174;2023-05-19T08:37:52;15.80;99.90
16305;DHT22;8261;47.678;-122.174;2023-05-19T08:40:24;15.80;99.90
16305;DHT22;8261;47.678;-122.174;2023-05-19T08:43:01;15.80;99.90
16305;DHT22;8261;47.678;-122.174;2023-05-19T08:45:32;15.80;99.90
16305;DHT22;8261;47.678;-122.174;2023-05-19T08:48:04;15.80;99.90
16305;DHT22;8261;47.678;-122.174;2023-05-19T08:50:39;15.80;99.90
16305;DHT22;8261;47.678;-122.174;2023-05-19T08:53:15;15.70;99.90
16305;DHT22;8261;47.678;-122.174;2023-05-19T08:56:04;15.60;99.90
16305;DHT22;8261;47.678;-122.174;2023-05-19T08:58:41;15.60;99.90
16305;DHT22;8261;47.678;-122.174;2023-05-19T09:01:14;15.50;99.90
16305;DHT22;8261;47.678;-122.174;2023-05-19T09:03:46;15.50;99.90
16305;DHT22;8261;47.678;-122.174;2023-05-19T09:06:18;15.50;99.90
16305;DHT22;8261;47.678;-122.174;2023-05-19T09:08:50;15.50;99.90
16305;DHT22;8261;47.678;-122.174;2023-05-19T09:11:21;15.50;99.90
16305;DHT22;8261;47.678;-122.174;2023-05-19T09:13:55;15.50;99.90
16305;DHT22;8261;47.678;-122.174;2023-05-19T09:16:27;15.40;99.90
16305;DHT22;8261;47.678;-122.174;2023-05-19T09:19:00;15.40;99.90
16305;DHT22;8261;47.678;-122.174;2023-05-19T09:21:32;15.30;99.90
16305;DHT22;8261;47.678;-122.174;2023-05-19T09:24:05;15.30;99.90
16305;DHT22;8261;47.678;-122.174;2023-05-19T09:26:38;15.30;99.90
16305;DHT22;8261;47.678;-122.174;2023-05-19T09:29:15;15.30;99.90
16305;DHT22;8261;47.678;-122.174;2023-05-19T09:31:48;15.30;99.90
16305;DHT22;8261;47.678;-122.174;2023-05-19T09:34:21;15.20;99.90
16305;DHT22;8261;47.678;-122.174;2023-05-19T09:36:54;15.20;99.90
16305;DHT22;8261;47.678;-122.174;2023-05-19T09:39:27;15.10;99.90
16305;DHT22;8261;47.678;-122.174;2023-05-19T09:41:58;15.10;99.90
16305;DHT22;8261;47.678;-122.174;2023-05-19T09:44:36;15.10;99.90
16305;DHT22;8261;47.678;-122.174;2023-05-19T09:47:08;15.10;99.90
16305;DHT22;8261;47.678;-122.174;2023-05-19T09:49:46;15.10;99.90
16305;DHT22;8261;47.678;-122.174;2023-05-19T09:52:17;15.00;99.90
16305;DHT22;8261;47.678;-122.174;2023-05-19T09:54:50;15.00;99.90
16305;DHT22;8261;47.678;-122.174;2023-05-19T09:57:25;14.90;99.90
16305;DHT22;8261;47.678;-122.174;2023-05-19T09:59:59;14.90;99.90
16305;DHT22;8261;47.678;-122.174;2023-05-19T10:02:40;14.80;99.90
16305;DHT22;8261;47.678;-122.174;2023-05-19T10:05:13;14.80;99.90
16305;DHT22;8261;47.678;-122.174;2023-05-19T10:07:50;14.80;99.90
16305;DHT22;8261;47.678;-122.174;2023-05-19T10:10:22;14.70;99.90
16305;DHT22;8261;47.678;-122.174;2023-05-19T10:12:53;14.60;99.90
16305;DHT22;8261;47.678;-122.174;2023-05-19T10:15:27;14.50;99.90
16305;DHT22;8261;47.678;-122.174;2023-05-19T10:18:03;14.50;99.90
16305;DHT22;8261;47.678;-122.174;2023-05-19T10:20:35;14.50;99.90
16305;DHT22;8261;47.678;-122.174;2023-05-19T10:23:07;14.40;99.90
16305;DHT22;8261;47.678;-122.174;2023-05-19T10:25:39;14.40;99.90
16305;DHT22;8261;47.678;-122.174;2023-05-19T10:28:13;14.40;99.90
16305;DHT22;8261;47.678;-122.174;2023-05-19T10:30:53;14.40;99.90
16305;DHT22;8261;47.678;-122.174;2023-05-19T10:33:35;14.50;99.90
16305;DHT22;8261;47.678;-122.174;2023-05-19T10:36:22;14.50;99.90
16305;DHT22;8261;47.678;-122.174;2023-05-19T10:39:05;14.40;99.90
16305;DHT22;8261;47.678;-122.174;2023-05-19T10:41:45;14.40;99.90
16305;DHT22;8261;47.678;-122.174;2023-05-19T10:44:27;14.40;99.90
16305;DHT22;8261;47.678;-122.174;2023-05-19T10:47:05;14.40;99.90
16305;DHT22;8261;47.678;-122.174;2023-05-19T10:49:40;14.30;99.90
16305;DHT22;8261;47.678;-122.174;2023-05-19T10:52:21;14.30;99.90
16305;DHT22;8261;47.678;-122.174;2023-05-19T10:54:53;14.30;99.90
16305;DHT22;8261;47.678;-122.174;2023-05-19T10:57:26;14.30;99.90
16305;DHT22;8261;47.678;-122.174;2023-05-19T11:00:03;14.30;99.90
16305;DHT22;8261;47.678;-122.174;2023-05-19T11:02:42;14.30;99.90
16305;DHT22;8261;47.678;-122.174;2023-05-19T11:05:15;14.30;99.90
16305;DHT22;8261;47.678;-122.174;2023-05-19T11:07:58;14.30;99.90
16305;DHT22;8261;47.678;-122.174;2023-05-19T11:10:31;14.30;99.90
16305;DHT22;8261;47.678;-122.174;2023-05-19T11:13:04;14.30;99.90
16305;DHT22;8261;47.678;-122.174;2023-05-19T11:15:35;14.20;99.90
16305;DHT22;8261;47.678;-122.174;2023-05-19T11:18:08;14.20;99.90
16305;DHT22;8261;47.678;-122.174;2023-05-19T11:20:41;14.30;99.90
16305;DHT22;8261;47.678;-122.174;2023-05-19T11:23:15;14.30;99.90
16305;DHT22;8261;47.678;-122.174;2023-05-19T11:25:48;14.30;99.90
16305;DHT22;8261;47.678;-122.174;2023-05-19T11:28:22;14.20;99.90
16305;DHT22;8261;47.678;-122.174;2023-05-19T11:30:57;14.20;99.90
16305;DHT22;8261;47.678;-122.174;2023-05-19T11:33:39;14.20;99.90
16305;DHT22;8261;47.678;-122.174;2023-05-19T11:36:10;14.20;99.90
16305;DHT22;8261;47.678;-122.174;2023-05-19T11:38:45;14.20;99.90
16305;DHT22;8261;47.678;-122.174;2023-05-19T11:41:17;14.10;99.90
16305;DHT22;8261;47.678;-122.174;2023-05-19T11:43:48;14.10;99.90
16305;DHT22;8261;47.678;-122.174;2023-05-19T11:46:20;13.90;99.90
16305;DHT22;8261;47.678;-122.174;2023-05-19T11:48:54;13.80;99.90
16305;DHT22;8261;47.678;-122.174;2023-05-19T11:51:25;13.70;99.90
16305;DHT22;8261;47.678;-122.174;2023-05-19T11:53:57;13.60;99.90
16305;DHT22;8261;47.678;-122.174;2023-05-19T11:56:33;13.60;99.90
16305;DHT22;8261;47.678;-122.174;2023-05-19T11:59:05;13.60;99.90
16305;DHT22;8261;47.678;-122.174;2023-05-19T12:01:36;13.70;99.90
16305;DHT22;8261;47.678;-122.174;2023-05-19T12:04:09;13.70;99.90
16305;DHT22;8261;47.678;-122.174;2023-05-19T12:06:41;13.70;99.90
16305;DHT22;8261;47.678;-122.174;2023-05-19T12:09:14;13.80;99.90
16305;DHT22;8261;47.678;-122.174;2023-05-19T12:11:45;13.80;99.90
16305;DHT22;8261;47.678;-122.174;2023-05-19T12:14:18;13.80;99.90
16305;DHT22;8261;47.678;-122.174;2023-05-19T12:16:50;13.80;99.90
16305;DHT22;8261;47.678;-122.174;2023-05-19T12:19:24;13.80;99.90
16305;DHT22;8261;47.678;-122.174;2023-05-19T12:21:56;13.70;99.90
16305;DHT22;8261;47.678;-122.174;2023-05-19T12:24:31;13.80;99.90
16305;DHT22;8261;47.678;-122.174;2023-05-19T12:27:09;13.70;99.90
16305;DHT22;8261;47.678;-122.174;2023-05-19T12:29:47;13.70;99.90
16305;DHT22;8261;47.678;-122.174;2023-05-19T12:32:22;13.70;99.90
16305;DHT22;8261;47.678;-122.174;2023-05-19T12:34:56;13.70;99.90
16305;DHT22;8261;47.678;-122.174;2023-05-19T12:37:29;13.70;99.90
16305;DHT22;8261;47.678;-122.174;2023-05-19T12:40:02;13.70;99.90
16305;DHT22;8261;47.678;-122.174;2023-05-19T12:42:34;13.70;99.90
16305;DHT22;8261;47.678;-122.174;2023-05-19T12:45:06;13.70;99.90
16305;DHT22;8261;47.678;-122.174;2023-05-19T12:47:37;13.70;99.90
16305;DHT22;8261;47.678;-122.174;2023-05-19T12:50:12;13.70;99.90
16305;DHT22;8261;47.678;-122.174;2023-05-19T12:52:45;13.70;99.90
16305;DHT22;8261;47.678;-122.174;2023-05-19T12:55:19;13.70;99.90
16305;DHT22;8261;47.678;-122.174;2023-05-19T12:57:52;13.70;99.90
16305;DHT22;8261;47.678;-122.174;2023-05-19T13:00:25;13.70;99.90
16305;DHT22;8261;47.678;-122.174;2023-05-19T13:03:01;13.80;99.90
16305;DHT22;8261;47.678;-122.174;2023-05-19T13:05:39;13.70;99.90
16305;DHT22;8261;47.678;-122.174;2023-05-19T13:08:13;13.80;99.90
16305;DHT22;8261;47.678;-122.174;2023-05-19T13:10:46;13.90;99.90
16305;DHT22;8261;47.678;-122.174;2023-05-19T13:13:18;13.90;99.90
16305;DHT22;8261;47.678;-122.174;2023-05-19T13:15:49;14.00;99.90
16305;DHT22;8261;47.678;-122.174;2023-05-19T13:18:24;14.00;99.90
16305;DHT22;8261;47.678;-122.174;2023-05-19T13:21:01;13.90;99.90
16305;DHT22;8261;47.678;-122.174;2023-05-19T13:23:33;13.90;99.90
16305;DHT22;8261;47.678;-122.174;2023-05-19T13:26:05;13.90;99.90
16305;DHT22;8261;47.678;-122.174;2023-05-19T13:28:39;14.00;99.90
16305;DHT22;8261;47.678;-122.174;2023-05-19T13:31:11;14.00;99.90
16305;DHT22;8261;47.678;-122.174;2023-05-19T13:33:43;14.00;99.90
16305;DHT22;8261;47.678;-122.174;2023-05-19T13:36:18;14.00;99.90
16305;DHT22;8261;47.678;-122.174;2023-05-19T13:38:49;14.00;99.90
16305;DHT22;8261;47.678;-122.174;2023-05-19T13:41:23;14.10;99.90
16305;DHT22;8261;47.678;-122.174;2023-05-19T13:43:56;14.10;99.90
16305;DHT22;8261;47.678;-122.174;2023-05-19T13:46:28;14.10;99.90
16305;DHT22;8261;47.678;-122.174;2023-05-19T13:49:12;14.10;99.90
16305;DHT22;8261;47.678;-122.174;2023-05-19T13:51:46;14.20;99.90
16305;DHT22;8261;47.678;-122.174;2023-05-19T13:54:17;14.30;99.90
16305;DHT22;8261;47.678;-122.174;2023-05-19T13:56:49;14.40;99.90
16305;DHT22;8261;47.678;-122.174;2023-05-19T13:59:20;14.40;99.90
16305;DHT22;8261;47.678;-122.174;2023-05-19T14:01:52;14.50;99.90
16305;DHT22;8261;47.678;-122.174;2023-05-19T14:04:24;14.50;99.90
16305;DHT22;8261;47.678;-122.174;2023-05-19T14:06:57;14.60;99.90
16305;DHT22;8261;47.678;-122.174;2023-05-19T14:09:29;14.60;99.90
16305;DHT22;8261;47.678;-122.174;2023-05-19T14:12:00;14.70;99.90
16305;DHT22;8261;47.678;-122.174;2023-05-19T14:14:32;14.70;99.90
16305;DHT22;8261;47.678;-122.174;2023-05-19T14:17:03;14.80;99.90
16305;DHT22;8261;47.678;-122.174;2023-05-19T14:19:35;14.90;99.90
16305;DHT22;8261;47.678;-122.174;2023-05-19T14:22:09;14.90;99.90
16305;DHT22;8261;47.678;-122.174;2023-05-19T14:24:41;14.80;99.90
16305;DHT22;8261;47.678;-122.174;2023-05-19T14:27:12;14.90;99.90
16305;DHT22;8261;47.678;-122.174;2023-05-19T14:29:43;14.80;99.90
16305;DHT22;8261;47.678;-122.174;2023-05-19T14:32:17;14.90;99.90
16305;DHT22;8261;47.678;-122.174;2023-05-19T14:34:48;15.10;99.90
16305;DHT22;8261;47.678;-122.174;2023-05-19T14:37:22;15.00;99.90
16305;DHT22;8261;47.678;-122.174;2023-05-19T14:39:54;15.20;99.90
16305;DHT22;8261;47.678;-122.174;2023-05-19T14:42:26;15.30;99.90
16305;DHT22;8261;47.678;-122.174;2023-05-19T14:44:57;15.40;99.90
16305;DHT22;8261;47.678;-122.174;2023-05-19T14:47:29;15.50;99.90
16305;DHT22;8261;47.678;-122.174;2023-05-19T14:50:01;15.60;99.90
16305;DHT22;8261;47.678;-122.174;2023-05-19T14:52:36;15.60;99.90
16305;DHT22;8261;47.678;-122.174;2023-05-19T14:55:08;15.70;99.90
16305;DHT22;8261;47.678;-122.174;2023-05-19T14:57:39;15.70;99.90
16305;DHT22;8261;47.678;-122.174;2023-05-19T15:00:11;15.80;99.90
16305;DHT22;8261;47.678;-122.174;2023-05-19T15:02:43;15.80;99.90
16305;DHT22;8261;47.678;-122.174;2023-05-19T15:05:14;15.80;99.90
16305;DHT22;8261;47.678;-122.174;2023-05-19T15:07:48;15.90;99.90
16305;DHT22;8261;47.678;-122.174;2023-05-19T15:10:20;15.80;99.90
16305;DHT22;8261;47.678;-122.174;2023-05-19T15:12:52;15.80;99.90
16305;DHT22;8261;47.678;-122.174;2023-05-19T15:15:24;15.80;99.90
16305;DHT22;8261;47.678;-122.174;2023-05-19T15:17:56;15.90;99.90
16305;DHT22;8261;47.678;-122.174;2023-05-19T15:20:29;16.10;99.90
16305;DHT22;8261;47.678;-122.174;2023-05-19T15:23:02;16.10;99.90
16305;DHT22;8261;47.678;-122.174;2023-05-19T15:25:34;15.80;99.90
16305;DHT22;8261;47.678;-122.174;2023-05-19T15:28:06;15.90;99.90
16305;DHT22;8261;47.678;-122.174;2023-05-19T15:30:38;15.70;99.90
16305;DHT22;8261;47.678;-122.174;2023-05-19T15:33:11;15.90;99.90
16305;DHT22;8261;47.678;-122.174;2023-05-19T15:35:43;16.00;99.90
16305;DHT22;8261;47.678;-122.174;2023-05-19T15:38:17;16.10;99.90
16305;DHT22;8261;47.678;-122.174;2023-05-19T15:40:49;16.10;99.90
16305;DHT22;8261;47.678;-122.174;2023-05-19T15:43:20;16.00;99.90
16305;DHT22;8261;47.678;-122.174;2023-05-19T15:45:52;15.90;99.90
16305;DHT22;8261;47.678;-122.174;2023-05-19T15:48:24;16.00;99.90
16305;DHT22;8261;47.678;-122.174;2023-05-19T15:50:56;16.10;99.90
16305;DHT22;8261;47.678;-122.174;2023-05-19T15:53:30;16.20;99.90
16305;DHT22;8261;47.678;-122.174;2023-05-19T15:56:02;16.20;99.90
16305;DHT22;8261;47.678;-122.174;2023-05-19T15:58:34;16.30;99.90
16305;DHT22;8261;47.678;-122.174;2023-05-19T16:01:06;16.30;99.90
16305;DHT22;8261;47.678;-122.174;2023-05-19T16:03:38;16.30;99.90
16305;DHT22;8261;47.678;-122.174;2023-05-19T16:06:10;16.10;99.90
16305;DHT22;8261;47.678;-122.174;2023-05-19T16:08:44;16.00;99.90
16305;DHT22;8261;47.678;-122.174;2023-05-19T16:11:16;16.20;99.90
16305;DHT22;8261;47.678;-122.174;2023-05-19T16:13:48;16.40;99.90
16305;DHT22;8261;47.678;-122.174;2023-05-19T16:16:20;16.50;99.90
16305;DHT22;8261;47.678;-122.174;2023-05-19T16:18:51;16.70;99.90
16305;DHT22;8261;47.678;-122.174;2023-05-19T16:21:23;16.70;99.90
16305;DHT22;8261;47.678;-122.174;2023-05-19T16:23:56;16.70;99.90
16305;DHT22;8261;47.678;-122.174;2023-05-19T16:26:28;16.50;99.90
16305;DHT22;8261;47.678;-122.174;2023-05-19T16:29:00;16.40;99.90
16305;DHT22;8261;47.678;-122.174;2023-05-19T16:31:31;16.60;99.90
16305;DHT22;8261;47.678;-122.174;2023-05-19T16:34:03;16.70;99.90
16305;DHT22;8261;47.678;-122.174;2023-05-19T16:36:35;16.90;99.90
16305;DHT22;8261;47.678;-122.174;2023-05-19T16:39:08;17.10;99.90
16305;DHT22;8261;47.678;-122.174;2023-05-19T16:41:39;17.20;99.90
16305;DHT22;8261;47.678;-122.174;2023-05-19T16:44:12;17.20;99.90
16305;DHT22;8261;47.678;-122.174;2023-05-19T16:46:44;17.20;99.90
16305;DHT22;8261;47.678;-122.174;2023-05-19T16:49:16;17.20;99.90
16305;DHT22;8261;47.678;-122.174;2023-05-19T16:51:46;17.10;99.90
16305;DHT22;8261;47.678;-122.174;2023-05-19T16:54:19;17.10;99.90
16305;DHT22;8261;47.678;-122.174;2023-05-19T16:56:51;16.90;99.90
16305;DHT22;8261;47.678;-122.174;2023-05-19T16:59:22;17.30;99.90
16305;DHT22;8261;47.678;-122.174;2023-05-19T17:01:52;17.50;99.90
16305;DHT22;8261;47.678;-122.174;2023-05-19T17:04:24;17.50;99.90
16305;DHT22;8261;47.678;-122.174;2023-05-19T17:06:57;17.60;99.90
16305;DHT22;8261;47.678;-122.174;2023-05-19T17:09:30;17.50;99.90
16305;DHT22;8261;47.678;-122.174;2023-05-19T17:12:01;17.60;99.90
16305;DHT22;8261;47.678;-122.174;2023-05-19T17:14:32;17.70;99.90
16305;DHT22;8261;47.678;-122.174;2023-05-19T17:17:03;18.00;99.90
16305;DHT22;8261;47.678;-122.174;2023-05-19T17:19:35;18.10;99.90
16305;DHT22;8261;47.678;-122.174;2023-05-19T17:22:06;18.40;99.90
16305;DHT22;8261;47.678;-122.174;2023-05-19T17:24:39;18.70;99.90
16305;DHT22;8261;47.678;-122.174;2023-05-19T17:27:09;18.60;99.90
16305;DHT22;8261;47.678;-122.174;2023-05-19T17:29:40;18.30;99.90
16305;DHT22;8261;47.678;-122.174;2023-05-19T17:32:12;18.50;99.90
16305;DHT22;8261;47.678;-122.174;2023-05-19T17:34:43;18.60;99.90
16305;DHT22;8261;47.678;-122.174;2023-05-19T17:37:13;18.80;99.90
16305;DHT22;8261;47.678;-122.174;2023-05-19T17:39:49;19.10;99.90
16305;DHT22;8261;47.678;-122.174;2023-05-19T17:42:20;19.20;99.90
16305;DHT22;8261;47.678;-122.174;2023-05-19T17:44:51;19.30;99.90
16305;DHT22;8261;47.678;-122.174;2023-05-19T17:47:22;19.20;99.90
16305;DHT22;8261;47.678;-122.174;2023-05-19T17:49:53;18.90;99.90
16305;DHT22;8261;47.678;-122.174;2023-05-19T17:52:24;19.00;99.90
16305;DHT22;8261;47.678;-122.174;2023-05-19T17:54:58;19.00;99.90
16305;DHT22;8261;47.678;-122.174;2023-05-19T17:57:30;18.80;99.90
16305;DHT22;8261;47.678;-122.174;2023-05-19T18:00:03;18.70;99.90
16305;DHT22;8261;47.678;-122.174;2023-05-19T18:02:36;18.60;99.90
16305;DHT22;8261;47.678;-122.174;2023-05-19T18:05:09;18.70;99.90
16305;DHT22;8261;47.678;-122.174;2023-05-19T18:07:42;18.80;99.90
16305;DHT22;8261;47.678;-122.174;2023-05-19T18:10:16;18.60;99.90
16305;DHT22;8261;47.678;-122.174;2023-05-19T18:12:47;18.70;99.90
16305;DHT22;8261;47.678;-122.174;2023-05-19T18:15:19;18.90;99.90
16305;DHT22;8261;47.678;-122.174;2023-05-19T18:17:50;18.90;99.90
16305;DHT22;8261;47.678;-122.174;2023-05-19T18:20:20;18.70;99.90
16305;DHT22;8261;47.678;-122.174;2023-05-19T18:22:51;18.30;99.90
16305;DHT22;8261;47.678;-122.174;2023-05-19T18:25:24;18.50;99.90
16305;DHT22;8261;47.678;-122.174;2023-05-19T18:27:55;18.70;99.90
16305;DHT22;8261;47.678;-122.174;2023-05-19T18:30:25;19.00;99.90
16305;DHT22;8261;47.678;-122.174;2023-05-19T18:32:57;19.10;99.90
16305;DHT22;8261;47.678;-122.174;2023-05-19T18:35:31;19.00;99.90
16305;DHT22;8261;47.678;-122.174;2023-05-19T18:38:01;19.10;99.90
16305;DHT22;8261;47.678;-122.174;2023-05-19T18:40:34;19.00;99.90
16305;DHT22;8261;47.678;-122.174;2023-05-19T18:43:05;19.10;99.90
16305;DHT22;8261;47.678;-122.174;2023-05-19T18:45:36;19.10;99.90
16305;DHT22;8261;47.678;-122.174;2023-05-19T18:48:07;19.20;99.90
16305;DHT22;8261;47.678;-122.174;2023-05-19T18:50:38;19.50;99.90
16305;DHT22;8261;47.678;-122.174;2023-05-19T18:53:12;19.70;99.90
16305;DHT22;8261;47.678;-122.174;2023-05-19T18:55:44;19.50;99.90
16305;DHT22;8261;47.678;-122.174;2023-05-19T18:58:16;19.60;99.90
16305;DHT22;8261;47.678;-122.174;2023-05-19T19:00:47;19.30;99.90
16305;DHT22;8261;47.678;-122.174;2023-05-19T19:03:18;19.40;99.90
16305;DHT22;8261;47.678;-122.174;2023-05-19T19:05:53;19.60;99.90
16305;DHT22;8261;47.678;-122.174;2023-05-19T19:08:25;19.50;99.90
16305;DHT22;8261;47.678;-122.174;2023-05-19T19:10:57;19.70;99.90
16305;DHT22;8261;47.678;-122.174;2023-05-19T19:13:28;19.90;99.90
16305;DHT22;8261;47.678;-122.174;2023-05-19T19:15:59;19.90;99.90
16305;DHT22;8261;47.678;-122.174;2023-05-19T19:18:30;19.50;99.90
16305;DHT22;8261;47.678;-122.174;2023-05-19T19:21:02;19.60;99.90
16305;DHT22;8261;47.678;-122.174;2023-05-19T19:23:33;19.70;99.90
16305;DHT22;8261;47.678;-122.174;2023-05-19T19:26:05;19.90;99.90
16305;DHT22;8261;47.678;-122.174;2023-05-19T19:28:37;19.70;99.90
16305;DHT22;8261;47.678;-122.174;2023-05-19T19:31:08;20.00;99.90
16305;DHT22;8261;47.678;-122.174;2023-05-19T19:33:38;20.10;99.90
16305;DHT22;8261;47.678;-122.174;2023-05-19T19:36:11;20.10;99.90
16305;DHT22;8261;47.678;-122.174;2023-05-19T19:38:42;20.20;99.90
16305;DHT22;8261;47.678;-122.174;2023-05-19T19:41:14;20.20;99.90
16305;DHT22;8261;47.678;-122.174;2023-05-19T19:43:47;19.90;99.90